sensor_id;sensor_type;location;lat;lon;timestamp;P1;durP1;ratioP1;P2;durP2;ratioP2
44204;SDS011;30163;42.698;23.344;2023-03-22T00:01:29;15.35;;;8.18;;
44204;SDS011;30163;42.698;23.344;2023-03-22T00:03:55;15.52;;;8.43;;
44204;SDS011;30163;42.698;23.344;2023-03-22T00:06:21;17.65;;;7.85;;
44204;SDS011;30163;42.698;23.344;2023-03-22T00:08:50;13.27;;;8.63;;
44204;SDS011;30163;42.698;23.344;2023-03-22T00:11:16;10.85;;;7.90;;
44204;SDS011;30163;42.698;23.344;2023-03-22T00:13:41;14.82;;;9.98;;
44204;SDS011;30163;42.698;23.344;2023-03-22T00:16:08;15.38;;;9.13;;
44204;SDS011;30163;42.698;23.344;2023-03-22T00:18:34;13.45;;;8.23;;
44204;SDS011;30163;42.698;23.344;2023-03-22T00:21:00;12.82;;;8.52;;
44204;SDS011;30163;42.698;23.344;2023-03-22T00:23:26;15.52;;;9.68;;
44204;SDS011;30163;42.698;23.344;2023-03-22T00:25:52;16.65;;;9.63;;
44204;SDS011;30163;42.698;23.344;2023-03-22T00:28:17;16.00;;;10.25;;
44204;SDS011;30163;42.698;23.344;2023-03-22T00:30:57;15.35;;;10.00;;
44204;SDS011;30163;42.698;23.344;2023-03-22T00:33:24;14.52;;;10.18;;
44204;SDS011;30163;42.698;23.344;2023-03-22T00:35:50;18.75;;;10.73;;
44204;SDS011;30163;42.698;23.344;2023-03-22T00:38:16;17.98;;;11.45;;
44204;SDS011;30163;42.698;23.344;2023-03-22T00:40:42;18.55;;;12.10;;
44204;SDS011;30163;42.698;23.344;2023-03-22T00:43:08;30.67;;;11.65;;
44204;SDS011;30163;42.698;23.344;2023-03-22T00:45:33;17.23;;;11.35;;
44204;SDS011;30163;42.698;23.344;2023-03-22T00:48:04;15.77;;;11.27;;
44204;SDS011;30163;42.698;23.344;2023-03-22T00:50:31;22.85;;;12.38;;
44204;SDS011;30163;42.698;23.344;2023-03-22T00:52:56;20.23;;;12.73;;
44204;SDS011;30163;42.698;23.344;2023-03-22T00:55:22;20.00;;;12.23;;
44204;SDS011;30163;42.698;23.344;2023-03-22T00:57:47;20.60;;;12.65;;
44204;SDS011;30163;42.698;23.344;2023-03-22T01:00:12;17.63;;;11.27;;
44204;SDS011;30163;42.698;23.344;2023-03-22T01:02:40;17.58;;;11.90;;
44204;SDS011;30163;42.698;23.344;2023-03-22T01:05:05;18.02;;;11.85;;
44204;SDS011;30163;42.698;23.344;2023-03-22T01:07:31;23.98;;;12.60;;
44204;SDS011;30163;42.698;23.344;2023-03-22T01:09:57;16.08;;;11.60;;
44204;SDS011;30163;42.698;23.344;2023-03-22T01:12:23;18.67;;;12.23;;
44204;SDS011;30163;42.698;23.344;2023-03-22T01:14:48;18.67;;;11.82;;
44204;SDS011;30163;42.698;23.344;2023-03-22T01:17:14;16.88;;;10.82;;
44204;SDS011;30163;42.698;23.344;2023-03-22T01:19:39;16.50;;;11.23;;
44204;SDS011;30163;42.698;23.344;2023-03-22T01:22:05;16.58;;;10.80;;
44204;SDS011;30163;42.698;23.344;2023-03-22T01:24:31;20.13;;;11.55;;
44204;SDS011;30163;42.698;23.344;2023-03-22T01:26:57;19.02;;;11.40;;
44204;SDS011;30163;42.698;23.344;2023-03-22T01:29:23;13.65;;;9.93;;
44204;SDS011;30163;42.698;23.344;2023-03-22T01:31:48;18.33;;;11.32;;
44204;SDS011;30163;42.698;23.344;2023-03-22T01:34:14;15.80;;;10.80;;
44204;SDS011;30163;42.698;23.344;2023-03-22T01:36:39;16.50;;;10.15;;
44204;SDS011;30163;42.698;23.344;2023-03-22T01:39:05;22.77;;;9.90;;
44204;SDS011;30163;42.698;23.344;2023-03-22T01:41:30;13.10;;;9.63;;
44204;SDS011;30163;42.698;23.344;2023-03-22T01:46:30;15.97;;;10.07;;
44204;SDS011;30163;42.698;23.344;2023-03-22T01:48:57;18.83;;;10.50;;
44204;SDS011;30163;42.698;23.344;2023-03-22T01:51:23;19.77;;;11.77;;
44204;SDS011;30163;42.698;23.344;2023-03-22T01:53:53;18.73;;;10.85;;
44204;SDS011;30163;42.698;23.344;2023-03-22T01:56:22;18.20;;;11.75;;
44204;SDS011;30163;42.698;23.344;2023-03-22T01:58:48;20.88;;;12.82;;
44204;SDS011;30163;42.698;23.344;2023-03-22T02:01:14;18.33;;;12.77;;
44204;SDS011;30163;42.698;23.344;2023-03-22T02:06:06;23.52;;;13.45;;
44204;SDS011;30163;42.698;23.344;2023-03-22T02:08:32;20.55;;;13.00;;
44204;SDS011;30163;42.698;23.344;2023-03-22T02:10:58;19.98;;;13.25;;
44204;SDS011;30163;42.698;23.344;2023-03-22T02:13:44;27.38;;;14.93;;
44204;SDS011;30163;42.698;23.344;2023-03-22T02:21:22;25.45;;;16.98;;
44204;SDS011;30163;42.698;23.344;2023-03-22T02:46:28;21.50;;;13.63;;
44204;SDS011;30163;42.698;23.344;2023-03-22T02:52:11;16.50;;;11.25;;
44204;SDS011;30163;42.698;23.344;2023-03-22T03:00:00;17.70;;;12.13;;
44204;SDS011;30163;42.698;23.344;2023-03-22T03:02:32;19.63;;;12.73;;
44204;SDS011;30163;42.698;23.344;2023-03-22T03:04:58;20.40;;;12.63;;
44204;SDS011;30163;42.698;23.344;2023-03-22T03:07:24;19.75;;;11.63;;
44204;SDS011;30163;42.698;23.344;2023-03-22T03:09:51;19.45;;;12.70;;
44204;SDS011;30163;42.698;23.344;2023-03-22T03:12:20;19.45;;;10.88;;
44204;SDS011;30163;42.698;23.344;2023-03-22T03:14:48;13.98;;;9.27;;
44204;SDS011;30163;42.698;23.344;2023-03-22T03:33:32;17.25;;;10.30;;
44204;SDS011;30163;42.698;23.344;2023-03-22T03:36:01;14.30;;;9.35;;
44204;SDS011;30163;42.698;23.344;2023-03-22T03:38:30;12.93;;;9.40;;
44204;SDS011;30163;42.698;23.344;2023-03-22T03:40:59;16.85;;;10.43;;
44204;SDS011;30163;42.698;23.344;2023-03-22T03:43:26;12.02;;;8.70;;
44204;SDS011;30163;42.698;23.344;2023-03-22T03:45:52;15.45;;;9.40;;
44204;SDS011;30163;42.698;23.344;2023-03-22T03:48:20;13.82;;;8.45;;
44204;SDS011;30163;42.698;23.344;2023-03-22T03:50:48;13.82;;;9.25;;
44204;SDS011;30163;42.698;23.344;2023-03-22T03:53:15;13.30;;;8.68;;
44204;SDS011;30163;42.698;23.344;2023-03-22T03:55:40;13.82;;;9.07;;
44204;SDS011;30163;42.698;23.344;2023-03-22T03:58:06;14.55;;;9.68;;
44204;SDS011;30163;42.698;23.344;2023-03-22T04:00:33;19.38;;;9.65;;
44204;SDS011;30163;42.698;23.344;2023-03-22T04:02:59;12.60;;;8.73;;
44204;SDS011;30163;42.698;23.344;2023-03-22T04:05:24;14.88;;;8.38;;
44204;SDS011;30163;42.698;23.344;2023-03-22T04:07:50;11.75;;;8.18;;
44204;SDS011;30163;42.698;23.344;2023-03-22T04:10:15;12.48;;;8.45;;
44204;SDS011;30163;42.698;23.344;2023-03-22T04:12:41;12.00;;;8.57;;
44204;SDS011;30163;42.698;23.344;2023-03-22T04:15:06;13.40;;;8.57;;
44204;SDS011;30163;42.698;23.344;2023-03-22T04:17:32;10.63;;;8.15;;
44204;SDS011;30163;42.698;23.344;2023-03-22T04:19:57;11.57;;;7.60;;
44204;SDS011;30163;42.698;23.344;2023-03-22T04:22:23;12.88;;;8.45;;
44204;SDS011;30163;42.698;23.344;2023-03-22T04:24:49;19.58;;;9.68;;
44204;SDS011;30163;42.698;23.344;2023-03-22T04:27:18;13.07;;;8.95;;
44204;SDS011;30163;42.698;23.344;2023-03-22T04:29:44;24.90;;;10.43;;
44204;SDS011;30163;42.698;23.344;2023-03-22T04:32:15;29.77;;;12.35;;
44204;SDS011;30163;42.698;23.344;2023-03-22T04:34:46;20.88;;;10.77;;
44204;SDS011;30163;42.698;23.344;2023-03-22T04:37:15;25.60;;;11.73;;
44204;SDS011;30163;42.698;23.344;2023-03-22T04:39:42;24.23;;;10.98;;
44204;SDS011;30163;42.698;23.344;2023-03-22T04:42:07;23.98;;;11.13;;
44204;SDS011;30163;42.698;23.344;2023-03-22T04:44:33;19.58;;;10.70;;
44204;SDS011;30163;42.698;23.344;2023-03-22T04:46:59;21.88;;;11.40;;
44204;SDS011;30163;42.698;23.344;2023-03-22T04:49:25;22.35;;;10.95;;
44204;SDS011;30163;42.698;23.344;2023-03-22T04:51:51;19.67;;;10.75;;
44204;SDS011;30163;42.698;23.344;2023-03-22T04:54:20;15.52;;;9.25;;
44204;SDS011;30163;42.698;23.344;2023-03-22T04:56:45;15.38;;;9.45;;
44204;SDS011;30163;42.698;23.344;2023-03-22T04:59:11;18.02;;;9.63;;
44204;SDS011;30163;42.698;23.344;2023-03-22T05:01:36;17.73;;;10.02;;
44204;SDS011;30163;42.698;23.344;2023-03-22T05:04:02;13.82;;;8.63;;
44204;SDS011;30163;42.698;23.344;2023-03-22T05:06:28;15.00;;;9.15;;
44204;SDS011;30163;42.698;23.344;2023-03-22T05:08:56;13.80;;;8.98;;
44204;SDS011;30163;42.698;23.344;2023-03-22T05:11:22;13.05;;;9.00;;
44204;SDS011;30163;42.698;23.344;2023-03-22T05:13:51;14.38;;;8.88;;
44204;SDS011;30163;42.698;23.344;2023-03-22T05:16:17;12.80;;;8.65;;
44204;SDS011;30163;42.698;23.344;2023-03-22T05:18:43;11.50;;;7.65;;
44204;SDS011;30163;42.698;23.344;2023-03-22T05:21:13;12.18;;;9.02;;
44204;SDS011;30163;42.698;23.344;2023-03-22T05:23:41;16.70;;;11.02;;
44204;SDS011;30163;42.698;23.344;2023-03-22T05:26:06;14.63;;;9.55;;
44204;SDS011;30163;42.698;23.344;2023-03-22T05:28:33;12.65;;;8.57;;
44204;SDS011;30163;42.698;23.344;2023-03-22T05:30:59;15.05;;;10.43;;
44204;SDS011;30163;42.698;23.344;2023-03-22T05:33:25;20.80;;;10.88;;
44204;SDS011;30163;42.698;23.344;2023-03-22T05:35:51;18.38;;;11.20;;
44204;SDS011;30163;42.698;23.344;2023-03-22T05:38:17;28.20;;;11.80;;
44204;SDS011;30163;42.698;23.344;2023-03-22T05:40:43;18.50;;;10.95;;
44204;SDS011;30163;42.698;23.344;2023-03-22T05:43:08;14.77;;;10.07;;
44204;SDS011;30163;42.698;23.344;2023-03-22T05:45:34;13.25;;;8.43;;
44204;SDS011;30163;42.698;23.344;2023-03-22T05:48:01;14.13;;;8.82;;
44204;SDS011;30163;42.698;23.344;2023-03-22T05:50:26;15.15;;;9.63;;
44204;SDS011;30163;42.698;23.344;2023-03-22T05:52:52;15.90;;;10.23;;
44204;SDS011;30163;42.698;23.344;2023-03-22T05:55:17;21.75;;;11.50;;
44204;SDS011;30163;42.698;23.344;2023-03-22T05:57:43;15.23;;;10.70;;
44204;SDS011;30163;42.698;23.344;2023-03-22T06:00:11;31.98;;;11.60;;
44204;SDS011;30163;42.698;23.344;2023-03-22T06:02:42;17.70;;;11.60;;
44204;SDS011;30163;42.698;23.344;2023-03-22T06:05:09;25.48;;;11.02;;
44204;SDS011;30163;42.698;23.344;2023-03-22T06:07:37;20.10;;;10.02;;
44204;SDS011;30163;42.698;23.344;2023-03-22T06:10:04;20.88;;;10.75;;
44204;SDS011;30163;42.698;23.344;2023-03-22T06:12:31;16.00;;;9.85;;
44204;SDS011;30163;42.698;23.344;2023-03-22T06:14:56;22.65;;;10.40;;
44204;SDS011;30163;42.698;23.344;2023-03-22T06:17:22;13.93;;;9.63;;
44204;SDS011;30163;42.698;23.344;2023-03-22T06:19:48;15.90;;;9.82;;
44204;SDS011;30163;42.698;23.344;2023-03-22T06:22:14;12.50;;;7.07;;
44204;SDS011;30163;42.698;23.344;2023-03-22T06:24:40;12.90;;;9.13;;
44204;SDS011;30163;42.698;23.344;2023-03-22T06:27:06;12.77;;;9.00;;
44204;SDS011;30163;42.698;23.344;2023-03-22T06:29:32;16.02;;;8.88;;
44204;SDS011;30163;42.698;23.344;2023-03-22T06:31:57;13.25;;;8.85;;
44204;SDS011;30163;42.698;23.344;2023-03-22T06:34:23;13.30;;;9.10;;
44204;SDS011;30163;42.698;23.344;2023-03-22T06:36:48;14.50;;;9.60;;
44204;SDS011;30163;42.698;23.344;2023-03-22T06:39:13;16.08;;;10.18;;
44204;SDS011;30163;42.698;23.344;2023-03-22T06:41:39;16.30;;;11.10;;
44204;SDS011;30163;42.698;23.344;2023-03-22T06:44:04;15.10;;;11.05;;
44204;SDS011;30163;42.698;23.344;2023-03-22T06:46:30;19.75;;;10.90;;
44204;SDS011;30163;42.698;23.344;2023-03-22T06:48:55;13.65;;;9.20;;
44204;SDS011;30163;42.698;23.344;2023-03-22T06:51:20;15.02;;;10.88;;
44204;SDS011;30163;42.698;23.344;2023-03-22T06:53:46;16.05;;;10.70;;
44204;SDS011;30163;42.698;23.344;2023-03-22T06:56:12;23.92;;;11.63;;
44204;SDS011;30163;42.698;23.344;2023-03-22T06:58:37;16.15;;;10.35;;
44204;SDS011;30163;42.698;23.344;2023-03-22T07:01:03;14.20;;;9.43;;
44204;SDS011;30163;42.698;23.344;2023-03-22T07:03:28;14.00;;;9.05;;
44204;SDS011;30163;42.698;23.344;2023-03-22T07:06:04;13.88;;;9.10;;
44204;SDS011;30163;42.698;23.344;2023-03-22T07:08:32;13.48;;;9.30;;
44204;SDS011;30163;42.698;23.344;2023-03-22T07:10:58;22.20;;;8.88;;
44204;SDS011;30163;42.698;23.344;2023-03-22T07:13:23;15.50;;;8.27;;
44204;SDS011;30163;42.698;23.344;2023-03-22T07:15:49;13.65;;;9.48;;
44204;SDS011;30163;42.698;23.344;2023-03-22T07:18:14;13.88;;;9.75;;
44204;SDS011;30163;42.698;23.344;2023-03-22T07:20:39;14.05;;;9.48;;
44204;SDS011;30163;42.698;23.344;2023-03-22T07:23:06;12.15;;;8.55;;
44204;SDS011;30163;42.698;23.344;2023-03-22T07:25:33;21.20;;;9.98;;
44204;SDS011;30163;42.698;23.344;2023-03-22T07:27:59;27.00;;;10.05;;
44204;SDS011;30163;42.698;23.344;2023-03-22T07:30:24;28.90;;;11.10;;
44204;SDS011;30163;42.698;23.344;2023-03-22T07:32:50;26.23;;;11.70;;
44204;SDS011;30163;42.698;23.344;2023-03-22T07:35:15;19.33;;;11.25;;
44204;SDS011;30163;42.698;23.344;2023-03-22T07:37:42;17.52;;;10.00;;
44204;SDS011;30163;42.698;23.344;2023-03-22T07:40:08;21.23;;;9.93;;
44204;SDS011;30163;42.698;23.344;2023-03-22T07:42:34;14.75;;;10.25;;
44204;SDS011;30163;42.698;23.344;2023-03-22T07:44:59;17.52;;;11.43;;
44204;SDS011;30163;42.698;23.344;2023-03-22T07:47:24;16.90;;;10.75;;
44204;SDS011;30163;42.698;23.344;2023-03-22T07:49:50;17.13;;;11.80;;
44204;SDS011;30163;42.698;23.344;2023-03-22T07:52:16;19.80;;;11.55;;
44204;SDS011;30163;42.698;23.344;2023-03-22T07:54:42;18.13;;;12.20;;
44204;SDS011;30163;42.698;23.344;2023-03-22T07:57:07;16.02;;;10.45;;
44204;SDS011;30163;42.698;23.344;2023-03-22T07:59:33;16.67;;;10.75;;
44204;SDS011;30163;42.698;23.344;2023-03-22T08:01:59;15.45;;;10.52;;
44204;SDS011;30163;42.698;23.344;2023-03-22T08:04:24;15.85;;;10.38;;
44204;SDS011;30163;42.698;23.344;2023-03-22T08:06:50;15.32;;;10.38;;
44204;SDS011;30163;42.698;23.344;2023-03-22T08:09:16;28.00;;;11.10;;
44204;SDS011;30163;42.698;23.344;2023-03-22T08:11:42;15.38;;;8.98;;
44204;SDS011;30163;42.698;23.344;2023-03-22T08:14:07;16.25;;;9.77;;
44204;SDS011;30163;42.698;23.344;2023-03-22T08:16:33;18.17;;;10.40;;
44204;SDS011;30163;42.698;23.344;2023-03-22T08:18:59;19.50;;;12.25;;
44204;SDS011;30163;42.698;23.344;2023-03-22T08:21:24;25.08;;;13.80;;
44204;SDS011;30163;42.698;23.344;2023-03-22T08:23:51;21.98;;;11.77;;
44204;SDS011;30163;42.698;23.344;2023-03-22T08:26:16;26.63;;;13.20;;
44204;SDS011;30163;42.698;23.344;2023-03-22T08:28:42;17.83;;;10.43;;
44204;SDS011;30163;42.698;23.344;2023-03-22T08:31:08;19.50;;;11.82;;
44204;SDS011;30163;42.698;23.344;2023-03-22T08:33:37;22.60;;;13.65;;
44204;SDS011;30163;42.698;23.344;2023-03-22T08:36:04;26.95;;;14.02;;
44204;SDS011;30163;42.698;23.344;2023-03-22T08:38:31;26.45;;;13.55;;
44204;SDS011;30163;42.698;23.344;2023-03-22T08:40:56;21.83;;;13.63;;
44204;SDS011;30163;42.698;23.344;2023-03-22T08:43:21;26.85;;;12.90;;
44204;SDS011;30163;42.698;23.344;2023-03-22T08:45:47;18.63;;;12.82;;
44204;SDS011;30163;42.698;23.344;2023-03-22T08:48:12;23.77;;;13.68;;
44204;SDS011;30163;42.698;23.344;2023-03-22T08:50:38;19.38;;;11.82;;
44204;SDS011;30163;42.698;23.344;2023-03-22T08:53:03;22.42;;;10.93;;
44204;SDS011;30163;42.698;23.344;2023-03-22T08:55:29;21.10;;;10.27;;
44204;SDS011;30163;42.698;23.344;2023-03-22T08:57:55;21.23;;;11.23;;
44204;SDS011;30163;42.698;23.344;2023-03-22T09:00:23;20.13;;;11.40;;
44204;SDS011;30163;42.698;23.344;2023-03-22T09:02:49;21.52;;;14.27;;
44204;SDS011;30163;42.698;23.344;2023-03-22T09:05:14;22.77;;;15.05;;
44204;SDS011;30163;42.698;23.344;2023-03-22T09:07:40;28.20;;;16.30;;
44204;SDS011;30163;42.698;23.344;2023-03-22T09:10:06;29.10;;;16.85;;
44204;SDS011;30163;42.698;23.344;2023-03-22T09:12:32;29.45;;;15.77;;
44204;SDS011;30163;42.698;23.344;2023-03-22T09:14:57;20.17;;;12.93;;
44204;SDS011;30163;42.698;23.344;2023-03-22T09:17:23;25.17;;;14.02;;
44204;SDS011;30163;42.698;23.344;2023-03-22T09:19:48;23.83;;;13.43;;
44204;SDS011;30163;42.698;23.344;2023-03-22T09:22:14;19.40;;;12.70;;
44204;SDS011;30163;42.698;23.344;2023-03-22T09:24:39;16.67;;;10.63;;
44204;SDS011;30163;42.698;23.344;2023-03-22T09:27:05;20.67;;;10.50;;
44204;SDS011;30163;42.698;23.344;2023-03-22T09:29:30;24.70;;;10.65;;
44204;SDS011;30163;42.698;23.344;2023-03-22T09:31:56;12.48;;;9.05;;
44204;SDS011;30163;42.698;23.344;2023-03-22T09:34:21;17.45;;;9.50;;
44204;SDS011;30163;42.698;23.344;2023-03-22T09:36:47;17.38;;;9.38;;
44204;SDS011;30163;42.698;23.344;2023-03-22T09:39:12;19.98;;;9.88;;
44204;SDS011;30163;42.698;23.344;2023-03-22T09:44:58;16.17;;;10.15;;
44204;SDS011;30163;42.698;23.344;2023-03-22T09:47:06;19.27;;;10.18;;
44204;SDS011;30163;42.698;23.344;2023-03-22T09:49:35;25.85;;;10.05;;
44204;SDS011;30163;42.698;23.344;2023-03-22T09:52:05;22.52;;;9.95;;
44204;SDS011;30163;42.698;23.344;2023-03-22T09:54:38;21.25;;;12.38;;
44204;SDS011;30163;42.698;23.344;2023-03-22T10:05:51;16.13;;;8.40;;
44204;SDS011;30163;42.698;23.344;2023-03-22T10:08:35;13.98;;;7.35;;
44204;SDS011;30163;42.698;23.344;2023-03-22T10:11:41;13.00;;;8.40;;
44204;SDS011;30163;42.698;23.344;2023-03-22T10:16:44;15.30;;;9.15;;
44204;SDS011;30163;42.698;23.344;2023-03-22T10:19:18;22.63;;;10.15;;
44204;SDS011;30163;42.698;23.344;2023-03-22T10:21:48;14.32;;;9.02;;
44204;SDS011;30163;42.698;23.344;2023-03-22T10:24:19;11.70;;;8.20;;
44204;SDS011;30163;42.698;23.344;2023-03-22T10:26:48;11.88;;;8.45;;
44204;SDS011;30163;42.698;23.344;2023-03-22T10:31:45;17.83;;;9.95;;
44204;SDS011;30163;42.698;23.344;2023-03-22T10:34:15;17.30;;;10.57;;
44204;SDS011;30163;42.698;23.344;2023-03-22T10:36:45;21.42;;;10.20;;
44204;SDS011;30163;42.698;23.344;2023-03-22T10:39:13;17.80;;;9.80;;
44204;SDS011;30163;42.698;23.344;2023-03-22T10:41:49;14.90;;;9.57;;
44204;SDS011;30163;42.698;23.344;2023-03-22T10:44:17;14.13;;;8.95;;
44204;SDS011;30163;42.698;23.344;2023-03-22T10:46:43;27.40;;;10.55;;
44204;SDS011;30163;42.698;23.344;2023-03-22T10:49:14;15.10;;;9.85;;
44204;SDS011;30163;42.698;23.344;2023-03-22T10:52:46;17.30;;;11.40;;
44204;SDS011;30163;42.698;23.344;2023-03-22T10:54:57;26.15;;;11.13;;
44204;SDS011;30163;42.698;23.344;2023-03-22T10:57:23;17.63;;;10.35;;
44204;SDS011;30163;42.698;23.344;2023-03-22T10:59:50;18.95;;;9.20;;
44204;SDS011;30163;42.698;23.344;2023-03-22T11:02:34;25.92;;;11.10;;
44204;SDS011;30163;42.698;23.344;2023-03-22T11:05:00;13.00;;;6.40;;
44204;SDS011;30163;42.698;23.344;2023-03-22T11:12:38;8.40;;;4.68;;
44204;SDS011;30163;42.698;23.344;2023-03-22T11:15:16;13.85;;;5.05;;
44204;SDS011;30163;42.698;23.344;2023-03-22T11:17:48;17.40;;;7.18;;
44204;SDS011;30163;42.698;23.344;2023-03-22T11:20:15;23.83;;;7.32;;
44204;SDS011;30163;42.698;23.344;2023-03-22T11:22:41;19.67;;;7.50;;
44204;SDS011;30163;42.698;23.344;2023-03-22T11:25:25;17.42;;;6.53;;
44204;SDS011;30163;42.698;23.344;2023-03-22T11:27:56;9.00;;;4.72;;
44204;SDS011;30163;42.698;23.344;2023-03-22T11:32:47;12.15;;;6.18;;
44204;SDS011;30163;42.698;23.344;2023-03-22T11:35:19;28.15;;;10.77;;
44204;SDS011;30163;42.698;23.344;2023-03-22T11:37:47;32.05;;;11.70;;
44204;SDS011;30163;42.698;23.344;2023-03-22T11:40:20;25.55;;;10.95;;
44204;SDS011;30163;42.698;23.344;2023-03-22T11:42:54;27.08;;;11.07;;
44204;SDS011;30163;42.698;23.344;2023-03-22T11:45:25;23.27;;;10.80;;
44204;SDS011;30163;42.698;23.344;2023-03-22T11:47:52;24.65;;;12.20;;
44204;SDS011;30163;42.698;23.344;2023-03-22T11:50:24;21.33;;;10.30;;
44204;SDS011;30163;42.698;23.344;2023-03-22T11:52:52;26.17;;;12.52;;
44204;SDS011;30163;42.698;23.344;2023-03-22T11:55:18;31.20;;;11.48;;
44204;SDS011;30163;42.698;23.344;2023-03-22T11:57:43;21.77;;;11.43;;
44204;SDS011;30163;42.698;23.344;2023-03-22T12:00:17;17.77;;;11.45;;
44204;SDS011;30163;42.698;23.344;2023-03-22T12:02:49;31.30;;;14.02;;
44204;SDS011;30163;42.698;23.344;2023-03-22T12:05:25;19.35;;;11.93;;
44204;SDS011;30163;42.698;23.344;2023-03-22T12:07:54;20.20;;;10.75;;
44204;SDS011;30163;42.698;23.344;2023-03-22T12:10:31;19.55;;;11.27;;
44204;SDS011;30163;42.698;23.344;2023-03-22T12:13:02;18.08;;;10.95;;
44204;SDS011;30163;42.698;23.344;2023-03-22T12:15:32;20.35;;;10.65;;
44204;SDS011;30163;42.698;23.344;2023-03-22T12:18:02;15.77;;;10.25;;
44204;SDS011;30163;42.698;23.344;2023-03-22T12:20:36;18.55;;;9.98;;
44204;SDS011;30163;42.698;23.344;2023-03-22T12:23:13;16.25;;;10.50;;
44204;SDS011;30163;42.698;23.344;2023-03-22T12:25:40;15.82;;;9.95;;
44204;SDS011;30163;42.698;23.344;2023-03-22T12:28:14;19.35;;;10.57;;
44204;SDS011;30163;42.698;23.344;2023-03-22T12:30:43;17.90;;;10.20;;
44204;SDS011;30163;42.698;23.344;2023-03-22T12:36:03;14.02;;;9.30;;
44204;SDS011;30163;42.698;23.344;2023-03-22T12:38:40;13.43;;;8.98;;
44204;SDS011;30163;42.698;23.344;2023-03-22T12:41:09;16.90;;;9.35;;
44204;SDS011;30163;42.698;23.344;2023-03-22T12:46:17;14.52;;;9.73;;
44204;SDS011;30163;42.698;23.344;2023-03-22T12:48:46;29.10;;;12.98;;
44204;SDS011;30163;42.698;23.344;2023-03-22T12:51:14;23.05;;;14.18;;
44204;SDS011;30163;42.698;23.344;2023-03-22T12:53:47;20.73;;;13.77;;
44204;SDS011;30163;42.698;23.344;2023-03-22T12:56:19;20.90;;;11.68;;
44204;SDS011;30163;42.698;23.344;2023-03-22T12:58:51;17.80;;;11.77;;
44204;SDS011;30163;42.698;23.344;2023-03-22T13:01:33;15.45;;;9.25;;
44204;SDS011;30163;42.698;23.344;2023-03-22T13:04:24;17.55;;;10.00;;
44204;SDS011;30163;42.698;23.344;2023-03-22T13:09:16;20.02;;;11.20;;
44204;SDS011;30163;42.698;23.344;2023-03-22T13:19:58;15.00;;;9.52;;
44204;SDS011;30163;42.698;23.344;2023-03-22T13:22:30;21.60;;;9.50;;
44204;SDS011;30163;42.698;23.344;2023-03-22T13:27:51;14.20;;;8.30;;
44204;SDS011;30163;42.698;23.344;2023-03-22T13:32:59;12.05;;;7.57;;
44204;SDS011;30163;42.698;23.344;2023-03-22T13:38:52;14.23;;;8.75;;
44204;SDS011;30163;42.698;23.344;2023-03-22T13:43:47;11.98;;;7.30;;
44204;SDS011;30163;42.698;23.344;2023-03-22T13:56:54;12.75;;;7.93;;
44204;SDS011;30163;42.698;23.344;2023-03-22T14:04:44;20.90;;;10.23;;
44204;SDS011;30163;42.698;23.344;2023-03-22T14:07:31;16.05;;;9.70;;
44204;SDS011;30163;42.698;23.344;2023-03-22T14:10:20;20.08;;;8.90;;
44204;SDS011;30163;42.698;23.344;2023-03-22T14:15:37;17.63;;;9.77;;
44204;SDS011;30163;42.698;23.344;2023-03-22T14:18:14;23.40;;;11.30;;
44204;SDS011;30163;42.698;23.344;2023-03-22T14:20:46;26.75;;;11.90;;
44204;SDS011;30163;42.698;23.344;2023-03-22T14:23:17;25.58;;;14.02;;
44204;SDS011;30163;42.698;23.344;2023-03-22T14:25:46;17.00;;;11.65;;
44204;SDS011;30163;42.698;23.344;2023-03-22T14:28:19;19.83;;;9.98;;
44204;SDS011;30163;42.698;23.344;2023-03-22T14:30:45;18.63;;;10.27;;
44204;SDS011;30163;42.698;23.344;2023-03-22T14:33:18;23.10;;;10.27;;
44204;SDS011;30163;42.698;23.344;2023-03-22T14:35:47;16.02;;;10.82;;
44204;SDS011;30163;42.698;23.344;2023-03-22T14:38:18;26.35;;;12.25;;
44204;SDS011;30163;42.698;23.344;2023-03-22T14:40:45;20.90;;;12.40;;
44204;SDS011;30163;42.698;23.344;2023-03-22T14:43:12;20.60;;;11.32;;
44204;SDS011;30163;42.698;23.344;2023-03-22T14:48:13;21.13;;;12.65;;
44204;SDS011;30163;42.698;23.344;2023-03-22T14:50:46;20.50;;;12.93;;
44204;SDS011;30163;42.698;23.344;2023-03-22T14:53:12;23.15;;;12.48;;
44204;SDS011;30163;42.698;23.344;2023-03-22T14:55:38;25.40;;;12.35;;
44204;SDS011;30163;42.698;23.344;2023-03-22T14:58:05;17.00;;;10.98;;
44204;SDS011;30163;42.698;23.344;2023-03-22T15:00:33;17.00;;;9.55;;
44204;SDS011;30163;42.698;23.344;2023-03-22T15:05:37;20.73;;;12.48;;
44204;SDS011;30163;42.698;23.344;2023-03-22T15:08:05;27.40;;;11.57;;
44204;SDS011;30163;42.698;23.344;2023-03-22T15:10:34;21.60;;;12.07;;
44204;SDS011;30163;42.698;23.344;2023-03-22T15:13:00;29.02;;;12.43;;
44204;SDS011;30163;42.698;23.344;2023-03-22T15:15:35;32.83;;;12.68;;
44204;SDS011;30163;42.698;23.344;2023-03-22T15:18:02;27.50;;;14.30;;
44204;SDS011;30163;42.698;23.344;2023-03-22T15:20:30;24.02;;;13.52;;
44204;SDS011;30163;42.698;23.344;2023-03-22T15:22:57;24.08;;;13.38;;
44204;SDS011;30163;42.698;23.344;2023-03-22T15:25:31;26.48;;;13.65;;
44204;SDS011;30163;42.698;23.344;2023-03-22T15:28:01;24.70;;;13.65;;
44204;SDS011;30163;42.698;23.344;2023-03-22T15:30:31;22.33;;;13.10;;
44204;SDS011;30163;42.698;23.344;2023-03-22T15:33:01;27.30;;;14.13;;
44204;SDS011;30163;42.698;23.344;2023-03-22T15:35:30;28.33;;;12.20;;
44204;SDS011;30163;42.698;23.344;2023-03-22T15:37:55;21.35;;;12.60;;
44204;SDS011;30163;42.698;23.344;2023-03-22T15:40:36;16.55;;;11.32;;
44204;SDS011;30163;42.698;23.344;2023-03-22T15:43:20;21.65;;;10.48;;
44204;SDS011;30163;42.698;23.344;2023-03-22T15:48:39;19.85;;;9.52;;
44204;SDS011;30163;42.698;23.344;2023-03-22T15:51:11;20.10;;;10.10;;
44204;SDS011;30163;42.698;23.344;2023-03-22T15:53:38;27.52;;;10.65;;
44204;SDS011;30163;42.698;23.344;2023-03-22T15:56:04;27.13;;;12.55;;
44204;SDS011;30163;42.698;23.344;2023-03-22T15:58:31;25.05;;;12.38;;
44204;SDS011;30163;42.698;23.344;2023-03-22T16:01:07;27.85;;;14.30;;
44204;SDS011;30163;42.698;23.344;2023-03-22T16:03:39;19.08;;;11.95;;
44204;SDS011;30163;42.698;23.344;2023-03-22T16:06:09;19.40;;;11.23;;
44204;SDS011;30163;42.698;23.344;2023-03-22T16:08:35;18.40;;;11.32;;
44204;SDS011;30163;42.698;23.344;2023-03-22T16:11:00;20.73;;;9.80;;
44204;SDS011;30163;42.698;23.344;2023-03-22T16:13:26;28.45;;;11.07;;
44204;SDS011;30163;42.698;23.344;2023-03-22T16:15:51;21.67;;;11.32;;
44204;SDS011;30163;42.698;23.344;2023-03-22T16:18:20;24.40;;;12.50;;
44204;SDS011;30163;42.698;23.344;2023-03-22T16:20:46;28.30;;;13.70;;
44204;SDS011;30163;42.698;23.344;2023-03-22T16:23:12;68.32;;;31.88;;
44204;SDS011;30163;42.698;23.344;2023-03-22T16:25:40;47.47;;;18.25;;
44204;SDS011;30163;42.698;23.344;2023-03-22T16:28:05;45.10;;;20.20;;
44204;SDS011;30163;42.698;23.344;2023-03-22T16:30:31;54.55;;;22.08;;
44204;SDS011;30163;42.698;23.344;2023-03-22T16:32:58;48.42;;;22.65;;
44204;SDS011;30163;42.698;23.344;2023-03-22T16:35:25;52.53;;;23.45;;